»·PEaware :: N206SF KSAN-KPSP

N206SF :: KSAN-KPSP

FLIGHT INFORMATION

Flight Status: Arrived
Operator: Privately registered:
United States
More flights under this callsign
Pilot: Brad F. (31537)
Aircraft: CESSNA 172 SKYHAWK
(C172)
More flights by this aircraft type
Origin: KSAN San Diego Intl-Lindbergh
United States
Destination: KPSP Palm Springs Intl
United States
More flights between these airports :: More routes between these airports
Route:
File this flight plan on PilotEdge
Remarks:
Altitude:
(Current/Filed)
7,500ft
Speed:
(Current/Filed)
110kts
Departed: 09-Oct-20 03:13 PM
Arrived: 09-Oct-20 04:04 PM
Distance/Time
Traveled:
74nm/0:51
Distance/Time
To Go:
Arrived

Flight Plot

Page will automatically refresh every two minutes.


Map Options




Map Legend


Flown Route
Filed Route
Departure Airport
Arrival Airport
Navaid (VOR, NDB)
Fix

Horizontal Profiles

Position Reports

Time Latitude Longitude Heading Altitude Ground
Speed
09-Oct-20 14:58 32.733422 -117.178836 200 19ft 0kts
09-Oct-20 14:59 32.733422 -117.178836 200 19ft 0kts
09-Oct-20 15:00 32.733422 -117.178836 199 19ft 0kts
09-Oct-20 15:01 32.733422 -117.178836 199 19ft 0kts
09-Oct-20 15:02 32.733422 -117.178836 199 19ft 0kts
09-Oct-20 15:03 32.733422 -117.178836 199 19ft 0kts
09-Oct-20 15:04 32.732525 -117.180086 227 17ft 0kts
09-Oct-20 15:05 32.731559 -117.176614 108 17ft 25kts
09-Oct-20 15:06 32.730896 -117.175332 188 17ft 0kts
09-Oct-20 15:07 32.730896 -117.175332 188 17ft 0kts
09-Oct-20 15:08 32.730896 -117.175332 188 17ft 0kts
09-Oct-20 15:09 32.730896 -117.175332 188 17ft 0kts
09-Oct-20 15:10 32.730896 -117.175332 188 17ft 0kts
09-Oct-20 15:11 32.730896 -117.175332 188 17ft 0kts
09-Oct-20 15:12 32.730897 -117.178731 285 15ft 57kts
09-Oct-20 15:13 32.743649 -117.200931 322 673ft 88kts
09-Oct-20 15:14 32.763149 -117.219887 301 1459ft 91kts
09-Oct-20 15:15 32.778709 -117.245936 304 2015ft 104kts
09-Oct-20 15:16 32.799382 -117.270315 322 2404ft 107kts
09-Oct-20 15:17 32.823096 -117.291123 322 2839ft 106kts
09-Oct-20 15:18 32.843668 -117.315604 336 3289ft 109kts
09-Oct-20 15:19 32.873598 -117.320430 349 3722ft 109kts
09-Oct-20 15:20 32.903142 -117.321623 38 4077ft 113kts
09-Oct-20 15:21 32.928421 -117.299884 37 4435ft 113kts
09-Oct-20 15:22 32.954172 -117.278286 26 4765ft 112kts
09-Oct-20 15:23 32.983139 -117.262901 25 5054ft 114kts
09-Oct-20 15:24 33.007977 -117.239553 51 5331ft 115kts
09-Oct-20 15:25 33.029467 -117.211338 29 5596ft 115kts
09-Oct-20 15:26 33.056413 -117.190747 34 5856ft 115kts
09-Oct-20 15:27 33.082546 -117.169055 31 6207ft 114kts
09-Oct-20 15:28 33.108060 -117.146397 38 6580ft 113kts
09-Oct-20 15:29 33.132126 -117.123797 40 7021ft 109kts
09-Oct-20 15:30 33.155459 -117.099803 41 7407ft 110kts
09-Oct-20 15:31 33.175934 -117.072560 54 7554ft 110kts
09-Oct-20 15:32 33.201162 -117.052833 32 7538ft 108kts
09-Oct-20 15:33 33.223988 -117.027481 51 7467ft 116kts
09-Oct-20 15:34 33.243855 -116.998323 29 7505ft 114kts
09-Oct-20 15:35 33.269640 -116.975524 42 7531ft 116kts
09-Oct-20 15:36 33.295902 -116.953514 33 7567ft 115kts
09-Oct-20 15:37 33.322230 -116.930021 40 7458ft 118kts
09-Oct-20 15:38 33.344004 -116.901107 47 7412ft 114kts
09-Oct-20 15:39 33.362987 -116.870956 54 7441ft 113kts
09-Oct-20 15:40 33.382208 -116.841122 49 7455ft 113kts
09-Oct-20 15:41 33.404089 -116.813876 46 7446ft 113kts
09-Oct-20 15:42 33.425292 -116.786681 48 7520ft 111kts
09-Oct-20 15:43 33.447229 -116.760639 39 7537ft 114kts
09-Oct-20 15:44 33.469439 -116.733091 50 7501ft 114kts
09-Oct-20 15:45 33.489284 -116.703468 50 7498ft 113kts
09-Oct-20 15:46 33.508912 -116.674249 50 7500ft 114kts
09-Oct-20 15:47 33.528767 -116.644746 50 7500ft 113kts
09-Oct-20 15:48 33.545761 -116.615180 59 7508ft 101kts
09-Oct-20 15:49 33.560105 -116.585290 59 7123ft 119kts
09-Oct-20 15:50 33.573986 -116.549592 70 6491ft 117kts
09-Oct-20 15:51 33.582924 -116.513038 75 5730ft 113kts
09-Oct-20 15:52 33.594981 -116.481038 28 5088ft 108kts
09-Oct-20 15:53 33.620798 -116.491553 333 4902ft 99kts
09-Oct-20 15:54 33.645926 -116.504785 348 4845ft 98kts
09-Oct-20 15:55 33.672989 -116.509820 352 4825ft 98kts
09-Oct-20 15:56 33.697971 -116.517363 350 4297ft 87kts
09-Oct-20 15:58 33.720171 -116.510053 40 3712ft 98kts
09-Oct-20 15:59 33.742052 -116.489669 25 2826ft 100kts
09-Oct-20 16:00 33.765760 -116.495786 330 2020ft 92kts
09-Oct-20 16:01 33.788421 -116.508921 339 1302ft 85kts
09-Oct-20 16:02 33.801147 -116.494502 68 924ft 70kts
09-Oct-20 16:03 33.816288 -116.492716 324 577ft 76kts
09-Oct-20 16:04 33.830072 -116.505137 325 432ft 18kts
09-Oct-20 16:05 33.829851 -116.507224 178 438ft 12kts
09-Oct-20 16:06 33.825845 -116.507059 207 430ft 13kts

Navigation Log

Ident Type
Flight plan parsing failed, navigation log unavailable